sensor_id;sensor_type;location;lat;lon;timestamp;temperature;humidity
38333;DHT22;25748;46.670;14.272;2022-07-23T00:00:49;20.50;54.40
38333;DHT22;25748;46.670;14.272;2022-07-23T00:03:15;20.40;54.50
38333;DHT22;25748;46.670;14.272;2022-07-23T00:05:41;20.30;54.60
38333;DHT22;25748;46.670;14.272;2022-07-23T00:08:07;20.30;54.70
38333;DHT22;25748;46.670;14.272;2022-07-23T00:10:33;20.20;54.90
38333;DHT22;25748;46.670;14.272;2022-07-23T00:12:59;20.20;54.90
38333;DHT22;25748;46.670;14.272;2022-07-23T00:15:25;20.20;54.90
38333;DHT22;25748;46.670;14.272;2022-07-23T00:17:51;20.20;55.00
38333;DHT22;25748;46.670;14.272;2022-07-23T00:20:17;20.10;55.00
38333;DHT22;25748;46.670;14.272;2022-07-23T00:25:13;20.10;55.50
38333;DHT22;25748;46.670;14.272;2022-07-23T00:27:38;20.00;55.60
38333;DHT22;25748;46.670;14.272;2022-07-23T00:30:04;20.00;55.60
38333;DHT22;25748;46.670;14.272;2022-07-23T00:32:30;20.00;55.90
38333;DHT22;25748;46.670;14.272;2022-07-23T00:34:56;20.00;55.90
38333;DHT22;25748;46.670;14.272;2022-07-23T00:37:22;20.00;55.90
38333;DHT22;25748;46.670;14.272;2022-07-23T00:39:47;19.90;55.80
38333;DHT22;25748;46.670;14.272;2022-07-23T00:42:13;20.00;56.00
38333;DHT22;25748;46.670;14.272;2022-07-23T00:44:39;19.90;56.20
38333;DHT22;25748;46.670;14.272;2022-07-23T00:47:04;20.00;56.50
38333;DHT22;25748;46.670;14.272;2022-07-23T00:49:31;19.90;56.60
38333;DHT22;25748;46.670;14.272;2022-07-23T00:51:57;19.90;56.60
38333;DHT22;25748;46.670;14.272;2022-07-23T00:54:26;19.90;56.60
38333;DHT22;25748;46.670;14.272;2022-07-23T00:56:53;19.80;56.60
38333;DHT22;25748;46.670;14.272;2022-07-23T00:59:19;19.80;56.80
38333;DHT22;25748;46.670;14.272;2022-07-23T01:01:45;19.80;57.10
38333;DHT22;25748;46.670;14.272;2022-07-23T01:04:13;19.70;57.00
38333;DHT22;25748;46.670;14.272;2022-07-23T01:06:41;19.70;57.00
38333;DHT22;25748;46.670;14.272;2022-07-23T01:09:08;19.70;57.20
38333;DHT22;25748;46.670;14.272;2022-07-23T01:11:35;19.60;57.30
38333;DHT22;25748;46.670;14.272;2022-07-23T01:14:15;19.60;57.50
38333;DHT22;25748;46.670;14.272;2022-07-23T01:16:42;19.60;57.50
38333;DHT22;25748;46.670;14.272;2022-07-23T01:19:08;19.50;57.60
38333;DHT22;25748;46.670;14.272;2022-07-23T01:21:40;19.50;57.60
38333;DHT22;25748;46.670;14.272;2022-07-23T01:24:06;19.50;57.70
38333;DHT22;25748;46.670;14.272;2022-07-23T01:26:32;19.50;57.90
38333;DHT22;25748;46.670;14.272;2022-07-23T01:28:57;19.50;58.20
38333;DHT22;25748;46.670;14.272;2022-07-23T01:31:23;19.40;57.90
38333;DHT22;25748;46.670;14.272;2022-07-23T01:33:49;19.40;57.80
38333;DHT22;25748;46.670;14.272;2022-07-23T01:36:15;19.40;57.80
38333;DHT22;25748;46.670;14.272;2022-07-23T01:38:41;19.30;57.90
38333;DHT22;25748;46.670;14.272;2022-07-23T01:41:06;19.30;58.10
38333;DHT22;25748;46.670;14.272;2022-07-23T01:43:32;19.20;58.40
38333;DHT22;25748;46.670;14.272;2022-07-23T01:45:58;19.20;58.50
38333;DHT22;25748;46.670;14.272;2022-07-23T01:48:23;19.10;58.70
38333;DHT22;25748;46.670;14.272;2022-07-23T01:50:49;19.10;58.80
38333;DHT22;25748;46.670;14.272;2022-07-23T01:53:15;19.10;58.90
38333;DHT22;25748;46.670;14.272;2022-07-23T01:55:41;19.00;58.90
38333;DHT22;25748;46.670;14.272;2022-07-23T01:58:07;19.00;58.80
38333;DHT22;25748;46.670;14.272;2022-07-23T02:00:33;18.90;58.90
38333;DHT22;25748;46.670;14.272;2022-07-23T02:02:59;18.90;59.00
38333;DHT22;25748;46.670;14.272;2022-07-23T02:05:25;18.90;59.40
38333;DHT22;25748;46.670;14.272;2022-07-23T02:07:51;18.80;59.40
38333;DHT22;25748;46.670;14.272;2022-07-23T02:10:17;18.70;59.50
38333;DHT22;25748;46.670;14.272;2022-07-23T02:12:43;18.70;59.70
38333;DHT22;25748;46.670;14.272;2022-07-23T02:15:09;18.70;59.90
38333;DHT22;25748;46.670;14.272;2022-07-23T02:17:35;18.70;59.90
38333;DHT22;25748;46.670;14.272;2022-07-23T02:20:01;18.60;60.00
38333;DHT22;25748;46.670;14.272;2022-07-23T02:22:26;18.60;60.10
38333;DHT22;25748;46.670;14.272;2022-07-23T02:24:52;18.50;60.40
38333;DHT22;25748;46.670;14.272;2022-07-23T02:27:18;18.50;60.70
38333;DHT22;25748;46.670;14.272;2022-07-23T02:29:44;18.60;61.50
38333;DHT22;25748;46.670;14.272;2022-07-23T02:32:11;18.60;61.70
38333;DHT22;25748;46.670;14.272;2022-07-23T02:34:37;18.50;61.90
38333;DHT22;25748;46.670;14.272;2022-07-23T02:37:02;18.60;62.30
38333;DHT22;25748;46.670;14.272;2022-07-23T02:39:28;18.50;62.10
38333;DHT22;25748;46.670;14.272;2022-07-23T02:41:54;18.50;62.00
38333;DHT22;25748;46.670;14.272;2022-07-23T02:44:19;18.50;61.80
38333;DHT22;25748;46.670;14.272;2022-07-23T02:46:45;18.50;61.80
38333;DHT22;25748;46.670;14.272;2022-07-23T02:49:11;18.50;61.90
38333;DHT22;25748;46.670;14.272;2022-07-23T02:51:36;18.40;62.10
38333;DHT22;25748;46.670;14.272;2022-07-23T02:54:02;18.40;62.40
38333;DHT22;25748;46.670;14.272;2022-07-23T02:56:28;18.30;62.60
38333;DHT22;25748;46.670;14.272;2022-07-23T02:58:53;18.30;62.80
38333;DHT22;25748;46.670;14.272;2022-07-23T03:01:19;18.20;62.80
38333;DHT22;25748;46.670;14.272;2022-07-23T03:03:45;18.20;62.80
38333;DHT22;25748;46.670;14.272;2022-07-23T03:06:10;18.20;63.10
38333;DHT22;25748;46.670;14.272;2022-07-23T03:08:36;18.20;63.30
38333;DHT22;25748;46.670;14.272;2022-07-23T03:11:02;18.10;63.70
38333;DHT22;25748;46.670;14.272;2022-07-23T03:13:28;18.10;64.10
38333;DHT22;25748;46.670;14.272;2022-07-23T03:15:54;18.10;64.70
38333;DHT22;25748;46.670;14.272;2022-07-23T03:18:20;18.10;65.30
38333;DHT22;25748;46.670;14.272;2022-07-23T03:20:46;18.00;65.40
38333;DHT22;25748;46.670;14.272;2022-07-23T03:23:11;18.00;65.80
38333;DHT22;25748;46.670;14.272;2022-07-23T03:25:37;18.00;66.10
38333;DHT22;25748;46.670;14.272;2022-07-23T03:28:03;18.00;66.00
38333;DHT22;25748;46.670;14.272;2022-07-23T03:30:29;17.90;66.00
38333;DHT22;25748;46.670;14.272;2022-07-23T03:32:54;17.90;66.20
38333;DHT22;25748;46.670;14.272;2022-07-23T03:35:20;17.80;66.20
38333;DHT22;25748;46.670;14.272;2022-07-23T03:37:46;17.80;66.70
38333;DHT22;25748;46.670;14.272;2022-07-23T03:40:11;17.80;67.00
38333;DHT22;25748;46.670;14.272;2022-07-23T03:42:37;17.80;67.20
38333;DHT22;25748;46.670;14.272;2022-07-23T03:45:05;17.80;67.40
38333;DHT22;25748;46.670;14.272;2022-07-23T03:47:31;17.80;68.00
38333;DHT22;25748;46.670;14.272;2022-07-23T03:49:57;17.80;68.30
38333;DHT22;25748;46.670;14.272;2022-07-23T03:52:22;17.80;68.60
38333;DHT22;25748;46.670;14.272;2022-07-23T03:54:48;17.80;68.50
38333;DHT22;25748;46.670;14.272;2022-07-23T03:57:14;17.80;68.70
38333;DHT22;25748;46.670;14.272;2022-07-23T03:59:39;17.90;68.80
38333;DHT22;25748;46.670;14.272;2022-07-23T04:02:05;17.90;68.90
38333;DHT22;25748;46.670;14.272;2022-07-23T04:04:31;18.00;69.10
38333;DHT22;25748;46.670;14.272;2022-07-23T04:06:56;18.00;69.20
38333;DHT22;25748;46.670;14.272;2022-07-23T04:09:22;18.00;69.20
38333;DHT22;25748;46.670;14.272;2022-07-23T04:11:48;18.00;69.50
38333;DHT22;25748;46.670;14.272;2022-07-23T04:14:13;18.00;69.80
38333;DHT22;25748;46.670;14.272;2022-07-23T04:16:39;18.00;69.90
38333;DHT22;25748;46.670;14.272;2022-07-23T04:19:05;18.00;70.20
38333;DHT22;25748;46.670;14.272;2022-07-23T04:21:31;18.10;70.50
38333;DHT22;25748;46.670;14.272;2022-07-23T04:23:56;18.10;70.60
38333;DHT22;25748;46.670;14.272;2022-07-23T04:26:22;18.10;70.60
38333;DHT22;25748;46.670;14.272;2022-07-23T04:28:48;18.10;70.70
38333;DHT22;25748;46.670;14.272;2022-07-23T04:31:13;18.20;70.90
38333;DHT22;25748;46.670;14.272;2022-07-23T04:33:39;18.20;70.90
38333;DHT22;25748;46.670;14.272;2022-07-23T04:36:05;18.30;71.20
38333;DHT22;25748;46.670;14.272;2022-07-23T04:38:31;18.30;71.00
38333;DHT22;25748;46.670;14.272;2022-07-23T04:40:58;18.40;70.80
38333;DHT22;25748;46.670;14.272;2022-07-23T04:43:23;18.40;71.00
38333;DHT22;25748;46.670;14.272;2022-07-23T04:45:49;18.50;71.10
38333;DHT22;25748;46.670;14.272;2022-07-23T04:48:15;18.60;70.90
38333;DHT22;25748;46.670;14.272;2022-07-23T04:50:41;18.60;70.80
38333;DHT22;25748;46.670;14.272;2022-07-23T04:53:08;18.70;71.00
38333;DHT22;25748;46.670;14.272;2022-07-23T04:55:33;18.80;71.00
38333;DHT22;25748;46.670;14.272;2022-07-23T04:57:59;18.90;70.80
38333;DHT22;25748;46.670;14.272;2022-07-23T05:00:25;19.10;71.30
38333;DHT22;25748;46.670;14.272;2022-07-23T05:02:50;19.30;71.10
38333;DHT22;25748;46.670;14.272;2022-07-23T05:05:16;19.60;70.30
38333;DHT22;25748;46.670;14.272;2022-07-23T05:07:42;19.90;69.00
38333;DHT22;25748;46.670;14.272;2022-07-23T05:10:08;20.30;67.40
38333;DHT22;25748;46.670;14.272;2022-07-23T05:12:33;20.70;65.30
38333;DHT22;25748;46.670;14.272;2022-07-23T05:14:59;21.20;62.70
38333;DHT22;25748;46.670;14.272;2022-07-23T05:17:25;21.70;60.00
38333;DHT22;25748;46.670;14.272;2022-07-23T05:19:51;22.20;58.60
38333;DHT22;25748;46.670;14.272;2022-07-23T05:22:17;22.60;56.80
38333;DHT22;25748;46.670;14.272;2022-07-23T05:24:42;23.10;55.00
38333;DHT22;25748;46.670;14.272;2022-07-23T05:27:08;23.80;53.70
38333;DHT22;25748;46.670;14.272;2022-07-23T05:29:34;24.30;52.60
38333;DHT22;25748;46.670;14.272;2022-07-23T05:32:00;24.90;51.60
38333;DHT22;25748;46.670;14.272;2022-07-23T05:34:26;25.40;50.80
38333;DHT22;25748;46.670;14.272;2022-07-23T05:36:51;25.60;50.20
38333;DHT22;25748;46.670;14.272;2022-07-23T05:39:17;25.80;49.70
38333;DHT22;25748;46.670;14.272;2022-07-23T05:41:43;25.80;49.60
38333;DHT22;25748;46.670;14.272;2022-07-23T05:44:08;25.90;49.60
38333;DHT22;25748;46.670;14.272;2022-07-23T05:46:34;26.00;49.30
38333;DHT22;25748;46.670;14.272;2022-07-23T05:49:00;26.10;48.90
38333;DHT22;25748;46.670;14.272;2022-07-23T05:51:25;26.20;48.80
38333;DHT22;25748;46.670;14.272;2022-07-23T05:53:52;26.40;48.60
38333;DHT22;25748;46.670;14.272;2022-07-23T05:56:19;26.40;48.60
38333;DHT22;25748;46.670;14.272;2022-07-23T05:58:46;26.50;48.70
38333;DHT22;25748;46.670;14.272;2022-07-23T06:01:12;26.50;48.40
38333;DHT22;25748;46.670;14.272;2022-07-23T06:03:38;26.50;48.10
38333;DHT22;25748;46.670;14.272;2022-07-23T06:06:05;26.50;47.90
38333;DHT22;25748;46.670;14.272;2022-07-23T06:08:30;26.50;47.80
38333;DHT22;25748;46.670;14.272;2022-07-23T06:10:56;26.70;47.60
38333;DHT22;25748;46.670;14.272;2022-07-23T06:13:22;26.70;47.20
38333;DHT22;25748;46.670;14.272;2022-07-23T06:15:48;26.90;46.90
38333;DHT22;25748;46.670;14.272;2022-07-23T06:18:14;27.00;46.80
38333;DHT22;25748;46.670;14.272;2022-07-23T06:20:40;27.10;46.80
38333;DHT22;25748;46.670;14.272;2022-07-23T06:23:06;27.20;46.50
38333;DHT22;25748;46.670;14.272;2022-07-23T06:25:31;27.40;46.40
38333;DHT22;25748;46.670;14.272;2022-07-23T06:27:57;27.50;46.10
38333;DHT22;25748;46.670;14.272;2022-07-23T06:30:23;27.50;45.90
38333;DHT22;25748;46.670;14.272;2022-07-23T06:32:49;27.50;45.60
38333;DHT22;25748;46.670;14.272;2022-07-23T06:35:15;27.60;46.00
38333;DHT22;25748;46.670;14.272;2022-07-23T06:37:42;27.60;45.70
38333;DHT22;25748;46.670;14.272;2022-07-23T06:40:08;27.60;45.40
38333;DHT22;25748;46.670;14.272;2022-07-23T06:42:34;27.50;45.40
38333;DHT22;25748;46.670;14.272;2022-07-23T06:45:03;27.50;45.30
38333;DHT22;25748;46.670;14.272;2022-07-23T06:47:29;27.60;45.50
38333;DHT22;25748;46.670;14.272;2022-07-23T06:49:54;27.70;45.30
38333;DHT22;25748;46.670;14.272;2022-07-23T06:52:20;27.70;45.20
38333;DHT22;25748;46.670;14.272;2022-07-23T06:54:46;27.80;45.10
38333;DHT22;25748;46.670;14.272;2022-07-23T06:57:11;27.90;44.60
38333;DHT22;25748;46.670;14.272;2022-07-23T06:59:37;27.90;44.60
38333;DHT22;25748;46.670;14.272;2022-07-23T07:02:06;27.90;44.70
38333;DHT22;25748;46.670;14.272;2022-07-23T07:04:32;27.80;44.80
38333;DHT22;25748;46.670;14.272;2022-07-23T07:06:58;28.00;45.00
38333;DHT22;25748;46.670;14.272;2022-07-23T07:09:23;28.00;44.50
38333;DHT22;25748;46.670;14.272;2022-07-23T07:11:49;27.90;44.10
38333;DHT22;25748;46.670;14.272;2022-07-23T07:14:15;28.00;44.30
38333;DHT22;25748;46.670;14.272;2022-07-23T07:16:41;28.10;44.40
38333;DHT22;25748;46.670;14.272;2022-07-23T07:19:06;28.20;44.40
38333;DHT22;25748;46.670;14.272;2022-07-23T07:21:32;28.20;44.50
38333;DHT22;25748;46.670;14.272;2022-07-23T07:23:58;28.40;44.20
38333;DHT22;25748;46.670;14.272;2022-07-23T07:26:23;28.40;44.20
38333;DHT22;25748;46.670;14.272;2022-07-23T07:28:49;28.40;43.70
38333;DHT22;25748;46.670;14.272;2022-07-23T07:31:15;28.50;43.80
38333;DHT22;25748;46.670;14.272;2022-07-23T07:33:41;28.60;43.70
38333;DHT22;25748;46.670;14.272;2022-07-23T07:36:07;28.80;43.80
38333;DHT22;25748;46.670;14.272;2022-07-23T07:38:33;29.00;43.00
38333;DHT22;25748;46.670;14.272;2022-07-23T07:40:59;29.20;43.00
38333;DHT22;25748;46.670;14.272;2022-07-23T07:43:25;29.40;42.80
38333;DHT22;25748;46.670;14.272;2022-07-23T07:45:51;29.60;41.80
38333;DHT22;25748;46.670;14.272;2022-07-23T07:48:16;29.90;42.20
38333;DHT22;25748;46.670;14.272;2022-07-23T07:50:42;30.30;41.80
38333;DHT22;25748;46.670;14.272;2022-07-23T07:53:08;30.50;41.60
38333;DHT22;25748;46.670;14.272;2022-07-23T07:55:34;30.90;41.70
38333;DHT22;25748;46.670;14.272;2022-07-23T07:58:00;31.20;41.30
38333;DHT22;25748;46.670;14.272;2022-07-23T08:00:26;31.50;41.00
38333;DHT22;25748;46.670;14.272;2022-07-23T08:02:53;31.60;40.70
38333;DHT22;25748;46.670;14.272;2022-07-23T08:05:21;31.30;39.80
38333;DHT22;25748;46.670;14.272;2022-07-23T08:07:47;31.20;40.00
38333;DHT22;25748;46.670;14.272;2022-07-23T08:10:12;31.10;40.30
38333;DHT22;25748;46.670;14.272;2022-07-23T08:12:50;31.00;40.30
38333;DHT22;25748;46.670;14.272;2022-07-23T08:15:19;30.70;40.30
38333;DHT22;25748;46.670;14.272;2022-07-23T08:17:45;30.60;40.50
38333;DHT22;25748;46.670;14.272;2022-07-23T08:20:14;30.40;40.30
38333;DHT22;25748;46.670;14.272;2022-07-23T08:22:54;30.20;40.40
38333;DHT22;25748;46.670;14.272;2022-07-23T08:25:23;30.10;40.70
38333;DHT22;25748;46.670;14.272;2022-07-23T08:27:49;29.90;40.90
38333;DHT22;25748;46.670;14.272;2022-07-23T08:30:16;29.80;40.80
38333;DHT22;25748;46.670;14.272;2022-07-23T08:32:57;29.70;40.80
38333;DHT22;25748;46.670;14.272;2022-07-23T08:35:33;29.60;40.40
38333;DHT22;25748;46.670;14.272;2022-07-23T08:38:00;29.40;40.50
38333;DHT22;25748;46.670;14.272;2022-07-23T08:40:28;29.30;40.40
38333;DHT22;25748;46.670;14.272;2022-07-23T08:42:54;29.20;41.00
38333;DHT22;25748;46.670;14.272;2022-07-23T08:45:22;29.10;41.70
38333;DHT22;25748;46.670;14.272;2022-07-23T08:47:54;29.00;41.50
38333;DHT22;25748;46.670;14.272;2022-07-23T08:50:20;28.90;41.50
38333;DHT22;25748;46.670;14.272;2022-07-23T08:52:48;28.80;41.80
38333;DHT22;25748;46.670;14.272;2022-07-23T08:55:19;28.70;41.70
38333;DHT22;25748;46.670;14.272;2022-07-23T08:57:48;28.70;42.30
38333;DHT22;25748;46.670;14.272;2022-07-23T09:00:14;28.60;42.30
38333;DHT22;25748;46.670;14.272;2022-07-23T09:02:42;28.50;42.30
38333;DHT22;25748;46.670;14.272;2022-07-23T09:05:09;28.40;42.10
38333;DHT22;25748;46.670;14.272;2022-07-23T09:07:37;28.40;41.90
38333;DHT22;25748;46.670;14.272;2022-07-23T09:10:10;28.50;41.90
38333;DHT22;25748;46.670;14.272;2022-07-23T09:12:37;28.60;42.10
38333;DHT22;25748;46.670;14.272;2022-07-23T09:15:08;28.80;42.40
38333;DHT22;25748;46.670;14.272;2022-07-23T09:17:42;28.90;41.90
38333;DHT22;25748;46.670;14.272;2022-07-23T09:20:13;29.10;41.60
38333;DHT22;25748;46.670;14.272;2022-07-23T09:22:46;29.30;41.80
38333;DHT22;25748;46.670;14.272;2022-07-23T09:25:16;29.60;42.40
38333;DHT22;25748;46.670;14.272;2022-07-23T09:30:26;30.10;42.80
38333;DHT22;25748;46.670;14.272;2022-07-23T09:33:13;30.20;41.60
38333;DHT22;25748;46.670;14.272;2022-07-23T09:35:55;30.40;40.70
38333;DHT22;25748;46.670;14.272;2022-07-23T09:38:24;30.60;41.10
38333;DHT22;25748;46.670;14.272;2022-07-23T09:41:07;30.70;40.60
38333;DHT22;25748;46.670;14.272;2022-07-23T09:43:33;30.80;39.80
38333;DHT22;25748;46.670;14.272;2022-07-23T09:46:20;30.90;40.50
38333;DHT22;25748;46.670;14.272;2022-07-23T09:48:47;31.00;40.40
38333;DHT22;25748;46.670;14.272;2022-07-23T09:51:13;31.10;39.90
38333;DHT22;25748;46.670;14.272;2022-07-23T09:53:42;31.00;39.40
38333;DHT22;25748;46.670;14.272;2022-07-23T09:56:08;31.20;39.40
38333;DHT22;25748;46.670;14.272;2022-07-23T09:58:36;31.30;38.90
38333;DHT22;25748;46.670;14.272;2022-07-23T10:01:09;31.20;39.00
38333;DHT22;25748;46.670;14.272;2022-07-23T10:03:35;31.10;38.60
38333;DHT22;25748;46.670;14.272;2022-07-23T10:06:01;31.20;39.10
38333;DHT22;25748;46.670;14.272;2022-07-23T10:08:27;31.30;38.60
38333;DHT22;25748;46.670;14.272;2022-07-23T10:10:54;31.30;38.10
38333;DHT22;25748;46.670;14.272;2022-07-23T10:13:20;31.40;38.60
38333;DHT22;25748;46.670;14.272;2022-07-23T10:15:59;31.40;38.20
38333;DHT22;25748;46.670;14.272;2022-07-23T10:18:25;31.30;38.10
38333;DHT22;25748;46.670;14.272;2022-07-23T10:20:51;31.40;38.10
38333;DHT22;25748;46.670;14.272;2022-07-23T10:31:35;31.30;38.40
38333;DHT22;25748;46.670;14.272;2022-07-23T10:34:19;31.30;38.10
38333;DHT22;25748;46.670;14.272;2022-07-23T10:36:53;31.30;38.20
38333;DHT22;25748;46.670;14.272;2022-07-23T10:39:34;31.30;38.30
38333;DHT22;25748;46.670;14.272;2022-07-23T10:42:18;31.30;38.20
38333;DHT22;25748;46.670;14.272;2022-07-23T10:44:46;31.30;37.60
38333;DHT22;25748;46.670;14.272;2022-07-23T10:47:21;31.50;37.90
38333;DHT22;25748;46.670;14.272;2022-07-23T10:49:51;31.70;37.90
38333;DHT22;25748;46.670;14.272;2022-07-23T10:52:18;31.70;37.70
38333;DHT22;25748;46.670;14.272;2022-07-23T10:55:47;31.80;37.00
38333;DHT22;25748;46.670;14.272;2022-07-23T10:57:48;32.00;36.90
38333;DHT22;25748;46.670;14.272;2022-07-23T11:00:16;32.30;37.50
38333;DHT22;25748;46.670;14.272;2022-07-23T11:02:46;32.40;37.00
38333;DHT22;25748;46.670;14.272;2022-07-23T11:05:21;32.90;37.00
38333;DHT22;25748;46.670;14.272;2022-07-23T11:08:15;33.40;36.70
38333;DHT22;25748;46.670;14.272;2022-07-23T11:11:08;34.00;36.50
38333;DHT22;25748;46.670;14.272;2022-07-23T11:13:41;34.40;36.10
38333;DHT22;25748;46.670;14.272;2022-07-23T11:24:04;35.40;35.70
38333;DHT22;25748;46.670;14.272;2022-07-23T11:26:43;35.40;36.40
38333;DHT22;25748;46.670;14.272;2022-07-23T11:32:18;36.10;36.20
38333;DHT22;25748;46.670;14.272;2022-07-23T11:34:46;36.60;35.70
38333;DHT22;25748;46.670;14.272;2022-07-23T11:37:32;37.10;35.30
38333;DHT22;25748;46.670;14.272;2022-07-23T11:39:59;37.30;34.90
38333;DHT22;25748;46.670;14.272;2022-07-23T11:42:25;37.40;35.10
38333;DHT22;25748;46.670;14.272;2022-07-23T11:44:51;37.60;35.50
38333;DHT22;25748;46.670;14.272;2022-07-23T11:47:25;37.50;35.40
38333;DHT22;25748;46.670;14.272;2022-07-23T11:49:56;37.40;35.60
38333;DHT22;25748;46.670;14.272;2022-07-23T11:52:23;37.40;35.90
38333;DHT22;25748;46.670;14.272;2022-07-23T11:54:58;37.30;35.50
38333;DHT22;25748;46.670;14.272;2022-07-23T11:57:27;37.40;35.20
38333;DHT22;25748;46.670;14.272;2022-07-23T11:59:56;37.30;35.30
38333;DHT22;25748;46.670;14.272;2022-07-23T12:02:22;37.30;35.80
38333;DHT22;25748;46.670;14.272;2022-07-23T12:04:50;37.20;35.60
38333;DHT22;25748;46.670;14.272;2022-07-23T12:07:35;37.00;35.50
38333;DHT22;25748;46.670;14.272;2022-07-23T12:10:08;36.70;35.50
38333;DHT22;25748;46.670;14.272;2022-07-23T12:12:48;36.50;35.90
38333;DHT22;25748;46.670;14.272;2022-07-23T12:15:16;36.30;36.00
38333;DHT22;25748;46.670;14.272;2022-07-23T12:17:44;36.00;36.20
38333;DHT22;25748;46.670;14.272;2022-07-23T12:20:15;35.90;36.60
38333;DHT22;25748;46.670;14.272;2022-07-23T12:22:42;35.80;36.20
38333;DHT22;25748;46.670;14.272;2022-07-23T12:25:13;35.80;36.40
38333;DHT22;25748;46.670;14.272;2022-07-23T12:27:39;36.00;36.50
38333;DHT22;25748;46.670;14.272;2022-07-23T12:32:45;35.70;35.70
38333;DHT22;25748;46.670;14.272;2022-07-23T12:35:11;35.50;35.60
38333;DHT22;25748;46.670;14.272;2022-07-23T12:37:40;35.30;35.80
38333;DHT22;25748;46.670;14.272;2022-07-23T12:40:26;35.00;35.50
38333;DHT22;25748;46.670;14.272;2022-07-23T12:43:01;35.00;36.10
38333;DHT22;25748;46.670;14.272;2022-07-23T12:45:28;35.10;35.90
38333;DHT22;25748;46.670;14.272;2022-07-23T12:48:06;35.20;35.80
38333;DHT22;25748;46.670;14.272;2022-07-23T12:50:33;35.40;35.90
38333;DHT22;25748;46.670;14.272;2022-07-23T12:53:08;35.60;35.90
38333;DHT22;25748;46.670;14.272;2022-07-23T12:55:35;35.80;35.80
38333;DHT22;25748;46.670;14.272;2022-07-23T13:00:31;36.40;36.50
38333;DHT22;25748;46.670;14.272;2022-07-23T13:02:57;37.00;36.50
38333;DHT22;25748;46.670;14.272;2022-07-23T13:05:22;37.60;35.70
38333;DHT22;25748;46.670;14.272;2022-07-23T13:07:48;38.00;35.90
38333;DHT22;25748;46.670;14.272;2022-07-23T13:10:14;38.30;35.60
38333;DHT22;25748;46.670;14.272;2022-07-23T13:12:40;38.50;35.10
38333;DHT22;25748;46.670;14.272;2022-07-23T13:15:06;38.80;35.20
38333;DHT22;25748;46.670;14.272;2022-07-23T13:17:31;38.70;34.40
38333;DHT22;25748;46.670;14.272;2022-07-23T13:19:57;38.80;34.60
38333;DHT22;25748;46.670;14.272;2022-07-23T13:22:23;38.90;35.00
38333;DHT22;25748;46.670;14.272;2022-07-23T13:24:48;38.90;34.70
38333;DHT22;25748;46.670;14.272;2022-07-23T13:27:14;39.10;34.80
38333;DHT22;25748;46.670;14.272;2022-07-23T13:29:40;39.00;34.80
38333;DHT22;25748;46.670;14.272;2022-07-23T13:32:06;39.20;35.20
38333;DHT22;25748;46.670;14.272;2022-07-23T13:34:32;39.20;34.80
38333;DHT22;25748;46.670;14.272;2022-07-23T13:36:58;39.30;34.40
38333;DHT22;25748;46.670;14.272;2022-07-23T13:39:23;39.20;34.10
38333;DHT22;25748;46.670;14.272;2022-07-23T13:41:49;39.20;34.30
38333;DHT22;25748;46.670;14.272;2022-07-23T13:44:15;39.20;34.20
38333;DHT22;25748;46.670;14.272;2022-07-23T13:46:41;39.00;34.10
38333;DHT22;25748;46.670;14.272;2022-07-23T13:49:06;38.90;34.40
38333;DHT22;25748;46.670;14.272;2022-07-23T13:51:32;38.90;34.50
38333;DHT22;25748;46.670;14.272;2022-07-23T13:53:58;38.80;34.30
38333;DHT22;25748;46.670;14.272;2022-07-23T13:56:24;38.70;34.50
38333;DHT22;25748;46.670;14.272;2022-07-23T13:58:50;38.70;34.90
38333;DHT22;25748;46.670;14.272;2022-07-23T14:01:16;38.80;34.50
38333;DHT22;25748;46.670;14.272;2022-07-23T14:03:41;38.80;34.90
38333;DHT22;25748;46.670;14.272;2022-07-23T14:06:07;38.60;33.90
38333;DHT22;25748;46.670;14.272;2022-07-23T14:08:33;38.60;34.30
38333;DHT22;25748;46.670;14.272;2022-07-23T14:10:59;38.60;34.50
38333;DHT22;25748;46.670;14.272;2022-07-23T14:13:25;38.60;34.30
38333;DHT22;25748;46.670;14.272;2022-07-23T14:15:50;38.40;34.40
38333;DHT22;25748;46.670;14.272;2022-07-23T14:18:16;38.20;34.10
38333;DHT22;25748;46.670;14.272;2022-07-23T14:20:42;38.10;34.40
38333;DHT22;25748;46.670;14.272;2022-07-23T14:23:08;38.00;34.20
38333;DHT22;25748;46.670;14.272;2022-07-23T14:25:33;37.70;34.00
38333;DHT22;25748;46.670;14.272;2022-07-23T14:27:59;37.60;34.20
38333;DHT22;25748;46.670;14.272;2022-07-23T14:30:25;37.30;34.30
38333;DHT22;25748;46.670;14.272;2022-07-23T14:32:52;37.00;35.00
38333;DHT22;25748;46.670;14.272;2022-07-23T14:35:18;36.90;34.70
38333;DHT22;25748;46.670;14.272;2022-07-23T14:37:44;36.70;34.40
38333;DHT22;25748;46.670;14.272;2022-07-23T14:40:10;36.60;34.40
38333;DHT22;25748;46.670;14.272;2022-07-23T14:42:36;36.30;34.60
38333;DHT22;25748;46.670;14.272;2022-07-23T14:45:02;36.10;34.50
38333;DHT22;25748;46.670;14.272;2022-07-23T14:47:29;35.90;34.40
38333;DHT22;25748;46.670;14.272;2022-07-23T14:49:55;35.80;35.20
38333;DHT22;25748;46.670;14.272;2022-07-23T14:52:21;35.60;35.10
38333;DHT22;25748;46.670;14.272;2022-07-23T14:54:46;35.50;35.40
38333;DHT22;25748;46.670;14.272;2022-07-23T14:57:13;35.30;35.00
38333;DHT22;25748;46.670;14.272;2022-07-23T14:59:38;35.20;34.70
38333;DHT22;25748;46.670;14.272;2022-07-23T15:02:07;35.20;34.60
38333;DHT22;25748;46.670;14.272;2022-07-23T15:04:33;35.20;35.10
38333;DHT22;25748;46.670;14.272;2022-07-23T15:06:58;35.10;35.50
38333;DHT22;25748;46.670;14.272;2022-07-23T15:09:24;35.10;35.80
38333;DHT22;25748;46.670;14.272;2022-07-23T15:11:50;35.10;35.20
38333;DHT22;25748;46.670;14.272;2022-07-23T15:14:16;35.00;35.10
38333;DHT22;25748;46.670;14.272;2022-07-23T15:16:42;34.90;35.30
38333;DHT22;25748;46.670;14.272;2022-07-23T15:19:08;34.90;35.70
38333;DHT22;25748;46.670;14.272;2022-07-23T15:21:33;34.90;35.30
38333;DHT22;25748;46.670;14.272;2022-07-23T15:24:02;34.80;35.00
38333;DHT22;25748;46.670;14.272;2022-07-23T15:26:29;34.70;34.60
38333;DHT22;25748;46.670;14.272;2022-07-23T15:28:56;34.70;35.00
38333;DHT22;25748;46.670;14.272;2022-07-23T15:31:25;34.70;34.70
38333;DHT22;25748;46.670;14.272;2022-07-23T15:33:51;34.60;35.20
38333;DHT22;25748;46.670;14.272;2022-07-23T15:36:19;34.60;36.00
38333;DHT22;25748;46.670;14.272;2022-07-23T15:38:45;34.50;35.60
38333;DHT22;25748;46.670;14.272;2022-07-23T15:41:11;34.50;35.50
38333;DHT22;25748;46.670;14.272;2022-07-23T15:43:37;34.50;35.50
38333;DHT22;25748;46.670;14.272;2022-07-23T15:46:04;34.40;35.80